createdAt,value
2016-11-16T00:00:58.604Z,1.21
2016-11-16T00:01:58.575Z,1.28
2016-11-16T00:02:58.567Z,1.2
2016-11-16T00:03:58.568Z,1.39
2016-11-16T00:04:58.536Z,1.49
2016-11-16T00:05:58.542Z,1.53
2016-11-16T00:06:58.492Z,1.47
2016-11-16T00:07:58.485Z,1.43
2016-11-16T00:08:58.499Z,1.5
2016-11-16T00:09:58.468Z,1.46
2016-11-16T00:10:58.465Z,1.47
2016-11-16T00:11:58.439Z,1.44
2016-11-16T00:12:58.428Z,1.44
2016-11-16T00:13:58.422Z,1.5
2016-11-16T00:14:58.403Z,1.28
2016-11-16T00:15:58.687Z,1.2
2016-11-16T00:16:58.369Z,1.31
2016-11-16T00:17:58.360Z,1.31
2016-11-16T00:18:58.346Z,1.28
2016-11-16T00:19:58.325Z,1.17
2016-11-16T00:20:58.307Z,1.32
2016-11-16T00:21:58.308Z,1.43
2016-11-16T00:22:58.285Z,1.67
2016-11-16T00:23:58.288Z,1.64
2016-11-16T00:24:58.267Z,1.56
2016-11-16T00:25:58.243Z,1.5
2016-11-16T00:26:58.245Z,1.28
2016-11-16T00:27:58.284Z,1.13
2016-11-16T00:28:58.196Z,1.21
2016-11-16T00:29:58.193Z,1.26
2016-11-16T00:30:58.230Z,1.38
2016-11-16T00:31:58.184Z,1.49
2016-11-16T00:32:58.178Z,1.5
2016-11-16T00:33:58.165Z,1.65
2016-11-16T00:34:58.146Z,1.65
2016-11-16T00:35:58.113Z,1.46
2016-11-16T00:36:58.119Z,1.43
2016-11-16T00:37:58.101Z,1.39
2016-11-16T00:38:58.065Z,1.47
2016-11-16T00:39:58.080Z,1.57
2016-11-16T00:40:58.056Z,1.68
2016-11-16T00:41:58.046Z,1.63
2016-11-16T00:42:58.025Z,1.63
2016-11-16T00:43:57.998Z,1.5
2016-11-16T00:44:57.998Z,1.56
2016-11-16T00:45:58.317Z,1.46
2016-11-16T00:46:57.985Z,1.5
2016-11-16T00:47:57.974Z,1.5
2016-11-16T00:48:57.960Z,1.54
2016-11-16T00:49:57.950Z,1.53
2016-11-16T00:50:57.927Z,1.64
2016-11-16T00:51:57.928Z,1.72
2016-11-16T00:52:57.901Z,1.64
2016-11-16T00:53:57.873Z,1.64
2016-11-16T00:54:57.867Z,1.65
2016-11-16T00:55:57.849Z,1.64
2016-11-16T00:56:57.889Z,1.65
2016-11-16T00:57:57.848Z,1.56
2016-11-16T00:58:57.824Z,1.53
2016-11-16T00:59:57.816Z,1.7
2016-11-16T01:00:57.786Z,1.72
2016-11-16T01:01:57.776Z,1.83
2016-11-16T01:02:57.758Z,1.64
2016-11-16T01:03:57.763Z,1.43
2016-11-16T01:04:57.746Z,1.43
2016-11-16T01:05:57.711Z,1.38
2016-11-16T01:06:57.715Z,1.35
2016-11-16T01:07:57.681Z,1.34
2016-11-16T01:08:57.705Z,1.46
2016-11-16T01:09:57.672Z,1.63
2016-11-16T01:10:57.647Z,1.67
2016-11-16T01:11:57.644Z,1.65
2016-11-16T01:12:57.643Z,1.89
2016-11-16T01:13:57.629Z,1.65
2016-11-16T01:14:57.610Z,1.81
2016-11-16T01:15:57.596Z,1.83
2016-11-16T01:16:57.573Z,1.93
2016-11-16T01:17:57.584Z,1.79
2016-11-16T01:18:57.550Z,1.77
2016-11-16T01:19:57.553Z,1.98
2016-11-16T01:20:57.530Z,1.82
2016-11-16T01:21:57.533Z,1.89
2016-11-16T01:22:57.502Z,1.81
2016-11-16T01:23:57.510Z,1.92
2016-11-16T01:24:57.494Z,1.93
2016-11-16T01:25:57.469Z,1.81
2016-11-16T01:26:57.447Z,1.82
2016-11-16T01:27:57.437Z,1.93
2016-11-16T01:28:57.413Z,1.89
2016-11-16T01:29:57.426Z,1.95
2016-11-16T01:30:57.409Z,2.01
2016-11-16T01:31:57.407Z,1.85
2016-11-16T01:32:57.380Z,1.75
2016-11-16T01:33:57.352Z,1.81
2016-11-16T01:34:57.355Z,1.98
2016-11-16T01:35:57.345Z,1.86
2016-11-16T01:36:57.324Z,1.83
2016-11-16T01:37:57.310Z,1.92
2016-11-16T01:38:57.305Z,2.01
2016-11-16T01:39:57.283Z,1.98
2016-11-16T01:40:57.275Z,2.04
2016-11-16T01:41:57.298Z,2
2016-11-16T01:42:57.272Z,2.09
2016-11-16T01:43:57.225Z,1.86
2016-11-16T01:44:57.228Z,1.98
2016-11-16T01:45:57.205Z,1.9
2016-11-16T01:46:57.196Z,1.83
2016-11-16T01:47:57.179Z,1.86
2016-11-16T01:48:57.183Z,2.07
2016-11-16T01:49:57.180Z,2.22
2016-11-16T01:50:57.467Z,2.12
2016-11-16T01:51:57.138Z,1.93
2016-11-16T01:52:57.123Z,2.08
2016-11-16T01:53:57.121Z,1.83
2016-11-16T01:54:57.108Z,1.74
2016-11-16T01:55:57.073Z,1.74
2016-11-16T01:56:57.084Z,1.83
2016-11-16T01:57:57.067Z,1.77
2016-11-16T01:58:57.051Z,1.63
2016-11-16T01:59:57.044Z,1.68
2016-11-16T02:00:57.027Z,1.6
2016-11-16T02:01:56.998Z,1.79
2016-11-16T02:02:57.011Z,2.02
2016-11-16T02:03:57.004Z,1.98
2016-11-16T02:04:56.981Z,2.07
2016-11-16T02:05:56.971Z,1.88
2016-11-16T02:06:56.953Z,1.88
2016-11-16T02:07:56.964Z,1.85
2016-11-16T02:08:56.911Z,1.83
2016-11-16T02:09:56.912Z,1.88
2016-11-16T02:10:56.881Z,1.98
2016-11-16T02:11:56.893Z,1.79
2016-11-16T02:12:56.874Z,1.98
2016-11-16T02:13:56.860Z,1.93
2016-11-16T02:14:56.863Z,1.95
2016-11-16T02:15:56.835Z,1.63
2016-11-16T02:16:56.842Z,1.64
2016-11-16T02:17:56.815Z,1.61
2016-11-16T02:18:56.806Z,1.68
2016-11-16T02:19:56.789Z,1.81
2016-11-16T02:20:56.758Z,1.81
2016-11-16T02:21:56.759Z,1.9
2016-11-16T02:22:56.759Z,2.11
2016-11-16T02:23:56.719Z,2.27
2016-11-16T02:24:56.729Z,2.12
2016-11-16T02:25:56.751Z,1.77
2016-11-16T02:26:56.723Z,1.56
2016-11-16T02:27:56.686Z,1.56
2016-11-16T02:28:56.684Z,1.54
2016-11-16T02:29:56.655Z,1.63
2016-11-16T02:30:56.640Z,1.6
2016-11-16T02:31:56.642Z,1.77
2016-11-16T02:32:56.652Z,1.71
2016-11-16T02:33:56.615Z,1.7
2016-11-16T02:34:56.595Z,1.77
2016-11-16T02:35:56.580Z,1.71
2016-11-16T02:36:56.579Z,1.65
2016-11-16T02:37:56.579Z,1.47
2016-11-16T02:38:56.545Z,1.39
2016-11-16T02:39:56.545Z,1.43
2016-11-16T02:40:56.529Z,1.35
2016-11-16T02:41:56.523Z,1.47
2016-11-16T02:42:56.486Z,1.65
2016-11-16T02:43:56.481Z,1.68
2016-11-16T02:44:56.476Z,1.85
2016-11-16T02:45:56.461Z,1.95
2016-11-16T02:46:56.445Z,1.95
2016-11-16T02:47:56.443Z,1.95
2016-11-16T02:48:56.417Z,2
2016-11-16T02:49:56.410Z,1.95
2016-11-16T02:50:56.403Z,2.08
2016-11-16T02:51:56.393Z,1.9
2016-11-16T02:52:56.359Z,1.88
2016-11-16T02:53:56.357Z,1.93
2016-11-16T02:54:56.334Z,2.15
2016-11-16T02:55:56.323Z,2.09
2016-11-16T02:56:56.322Z,1.95
2016-11-16T02:57:56.294Z,1.9
2016-11-16T02:58:56.301Z,1.9
2016-11-16T02:59:56.294Z,1.57
2016-11-16T03:00:56.256Z,1.32
2016-11-16T03:01:56.244Z,1.34
2016-11-16T03:02:56.225Z,1.44
2016-11-16T03:03:56.241Z,1.38
2016-11-16T03:04:56.229Z,1.52
2016-11-16T03:05:56.208Z,1.47
2016-11-16T03:06:56.179Z,1.43
2016-11-16T03:07:56.169Z,1.49
2016-11-16T03:08:56.157Z,1.6
2016-11-16T03:09:56.165Z,1.56
2016-11-16T03:10:56.119Z,1.67
2016-11-16T03:11:56.120Z,1.6
2016-11-16T03:12:56.128Z,1.47
2016-11-16T03:13:56.099Z,1.44
2016-11-16T03:14:56.084Z,1.34
2016-11-16T03:15:56.060Z,1.28
2016-11-16T03:16:56.064Z,1.47
2016-11-16T03:17:56.027Z,1.46
2016-11-16T03:18:56.029Z,1.47
2016-11-16T03:19:56.010Z,1.57
2016-11-16T03:20:56.009Z,1.63
2016-11-16T03:21:55.990Z,1.36
2016-11-16T03:22:55.973Z,1.31
2016-11-16T03:23:55.960Z,1.21
2016-11-16T03:24:55.931Z,1.28
2016-11-16T03:25:55.946Z,1.49
2016-11-16T03:26:55.928Z,1.63
2016-11-16T03:27:55.893Z,1.6
2016-11-16T03:28:55.904Z,1.77
2016-11-16T03:29:55.886Z,1.86
2016-11-16T03:30:55.859Z,1.9
2016-11-16T03:31:55.852Z,1.79
2016-11-16T03:32:55.847Z,1.75
2016-11-16T03:33:55.840Z,1.57
2016-11-16T03:34:55.811Z,1.71
2016-11-16T03:35:55.821Z,1.77
2016-11-16T03:36:55.785Z,1.7
2016-11-16T03:37:55.789Z,1.86
2016-11-16T03:38:55.769Z,1.81
2016-11-16T03:39:55.756Z,1.88
2016-11-16T03:40:55.736Z,2.19
2016-11-16T03:41:55.743Z,2.26
2016-11-16T03:42:55.724Z,2.3
2016-11-16T03:43:55.709Z,2.29
2016-11-16T03:44:55.687Z,2.29
2016-11-16T03:45:55.656Z,2.44
2016-11-16T03:46:55.681Z,2.26
2016-11-16T03:47:55.665Z,2.12
2016-11-16T03:48:55.631Z,2.19
2016-11-16T03:49:55.636Z,2.11
2016-11-16T03:50:55.612Z,2.12
2016-11-16T03:51:55.607Z,2.22
2016-11-16T03:52:55.591Z,2.29
2016-11-16T03:53:55.580Z,2.29
2016-11-16T03:54:55.543Z,2.32
2016-11-16T03:55:55.533Z,2.23
2016-11-16T03:56:55.538Z,2.38
2016-11-16T03:57:55.527Z,2.4
2016-11-16T03:58:55.514Z,2.2
2016-11-16T03:59:55.488Z,1.98
2016-11-16T04:00:55.497Z,1.83
2016-11-16T04:01:55.491Z,1.79
2016-11-16T04:02:55.478Z,1.79
2016-11-16T04:03:55.470Z,1.72
2016-11-16T04:04:55.428Z,1.38
2016-11-16T04:05:55.421Z,1.38
2016-11-16T04:06:55.396Z,1.63
2016-11-16T04:07:55.419Z,1.49
2016-11-16T04:08:55.382Z,1.21
2016-11-16T04:09:55.376Z,1.17
2016-11-16T04:10:55.357Z,1.04
2016-11-16T04:11:55.349Z,1.1
2016-11-16T04:12:55.342Z,1.16
2016-11-16T04:13:55.324Z,1.18
2016-11-16T04:14:55.291Z,1.17
2016-11-16T04:15:55.308Z,1.16
2016-11-16T04:16:55.291Z,1.16
2016-11-16T04:17:55.255Z,1.1
2016-11-16T04:18:55.234Z,1.2
2016-11-16T04:19:55.251Z,1.28
2016-11-16T04:20:55.276Z,1.25
2016-11-16T04:21:55.193Z,1.34
2016-11-16T04:22:55.189Z,1.26
2016-11-16T04:23:55.397Z,1.08
2016-11-16T04:24:55.187Z,1.13
2016-11-16T04:25:55.196Z,1.2
2016-11-16T04:26:55.148Z,1.13
2016-11-16T04:27:55.116Z,1.28
2016-11-16T04:28:55.116Z,1.26
2016-11-16T04:29:55.103Z,1.26
2016-11-16T04:30:55.093Z,1.28
2016-11-16T04:31:55.075Z,1.24
2016-11-16T04:32:55.059Z,1.24
2016-11-16T04:33:55.045Z,1.2
2016-11-16T04:34:55.072Z,1.21
2016-11-16T04:35:55.009Z,1.16
2016-11-16T04:36:55.007Z,1.18
2016-11-16T04:37:54.995Z,1.11
2016-11-16T04:38:54.973Z,1.08
2016-11-16T04:39:54.972Z,1.2
2016-11-16T04:40:54.957Z,1.18
2016-11-16T04:41:54.936Z,1.38
2016-11-16T04:42:54.932Z,1.38
2016-11-16T04:43:54.903Z,1.32
2016-11-16T04:44:54.901Z,1.35
2016-11-16T04:45:54.889Z,1.34
2016-11-16T04:46:54.866Z,1.34
2016-11-16T04:47:54.852Z,1.28
2016-11-16T04:48:54.856Z,1.35
2016-11-16T04:49:54.857Z,1.52
2016-11-16T04:50:54.793Z,1.47
2016-11-16T04:51:54.820Z,1.5
2016-11-16T04:52:54.796Z,1.5
2016-11-16T04:53:54.784Z,1.47
2016-11-16T04:54:54.778Z,1.36
2016-11-16T04:55:54.740Z,1.35
2016-11-16T04:56:54.731Z,1.29
2016-11-16T04:57:54.712Z,1.28
2016-11-16T04:58:54.704Z,1.2
2016-11-16T04:59:54.706Z,1.24
2016-11-16T05:00:54.654Z,1.26
2016-11-16T05:01:54.652Z,1.31
2016-11-16T05:02:54.655Z,1.35
2016-11-16T05:03:54.644Z,1.49
2016-11-16T05:04:54.617Z,1.67
2016-11-16T05:05:54.608Z,1.83
2016-11-16T05:06:54.576Z,1.95
2016-11-16T05:07:54.589Z,1.86
2016-11-16T05:08:54.559Z,1.88
2016-11-16T05:09:54.558Z,1.85
2016-11-16T05:10:54.536Z,1.79
2016-11-16T05:11:54.519Z,1.75
2016-11-16T05:12:54.525Z,1.56
2016-11-16T05:13:54.480Z,1.61
2016-11-16T05:14:54.504Z,1.5
2016-11-16T05:15:54.478Z,1.36
2016-11-16T05:16:54.476Z,1.28
2016-11-16T05:17:54.444Z,1.36
2016-11-16T05:18:54.433Z,1.43
2016-11-16T05:19:54.417Z,1.6
2016-11-16T05:20:54.408Z,1.67
2016-11-16T05:21:54.397Z,1.61
2016-11-16T05:22:54.377Z,1.61
2016-11-16T05:23:54.355Z,1.65
2016-11-16T05:24:54.356Z,1.65
2016-11-16T05:25:54.350Z,1.65
2016-11-16T05:26:54.327Z,1.67
2016-11-16T05:27:54.327Z,1.63
2016-11-16T05:28:54.295Z,1.63
2016-11-16T05:29:54.277Z,1.57
2016-11-16T05:30:54.288Z,1.52
2016-11-16T05:31:54.254Z,1.5
2016-11-16T05:32:54.232Z,1.52
2016-11-16T05:33:54.226Z,1.31
2016-11-16T05:34:54.201Z,1.47
2016-11-16T05:35:54.204Z,1.49
2016-11-16T05:36:54.192Z,1.47
2016-11-16T05:37:54.194Z,1.35
2016-11-16T05:38:54.151Z,1.42
2016-11-16T05:39:54.133Z,1.42
2016-11-16T05:40:54.136Z,1.38
2016-11-16T05:41:54.118Z,1.34
2016-11-16T05:42:54.124Z,1.32
2016-11-16T05:43:54.089Z,1.32
2016-11-16T05:44:54.069Z,1.43
2016-11-16T05:45:54.060Z,1.35
2016-11-16T05:46:54.051Z,1.29
2016-11-16T05:47:54.045Z,1.32
2016-11-16T05:48:54.023Z,1.31
2016-11-16T05:49:53.994Z,1.34
2016-11-16T05:50:53.995Z,1.42
2016-11-16T05:51:53.971Z,1.5
2016-11-16T05:52:53.983Z,1.68
2016-11-16T05:53:53.976Z,1.85
2016-11-16T05:54:53.937Z,1.79
2016-11-16T05:55:53.906Z,1.93
2016-11-16T05:56:53.896Z,1.82
2016-11-16T05:57:53.911Z,1.68
2016-11-16T05:58:53.891Z,1.68
2016-11-16T05:59:53.869Z,1.65
2016-11-16T06:00:53.842Z,1.6
2016-11-16T06:01:53.866Z,1.57
2016-11-16T06:02:53.814Z,1.56
2016-11-16T06:03:53.855Z,1.7
2016-11-16T06:04:53.811Z,1.95
2016-11-16T06:05:53.798Z,1.85
2016-11-16T06:06:53.794Z,1.72
2016-11-16T06:07:53.783Z,1.71
2016-11-16T06:08:53.765Z,1.64
2016-11-16T06:09:53.734Z,1.53
2016-11-16T06:10:53.740Z,1.46
2016-11-16T06:11:53.705Z,1.47
2016-11-16T06:12:53.700Z,1.31
2016-11-16T06:13:53.697Z,1.32
2016-11-16T06:14:53.668Z,1.32
2016-11-16T06:15:53.655Z,1.28
2016-11-16T06:16:53.682Z,1.34
2016-11-16T06:17:53.627Z,1.26
2016-11-16T06:18:53.629Z,1.26
2016-11-16T06:19:53.596Z,1.18
2016-11-16T06:20:53.593Z,1.25
2016-11-16T06:21:53.579Z,1.24
2016-11-16T06:22:53.559Z,1.25
2016-11-16T06:23:53.540Z,1.21
2016-11-16T06:24:53.534Z,1.1
2016-11-16T06:25:53.532Z,1.17
2016-11-16T06:26:53.491Z,1.16
2016-11-16T06:27:53.785Z,1.13
2016-11-16T06:28:53.474Z,1.07
2016-11-16T06:29:53.450Z,1.17
2016-11-16T06:30:53.437Z,1.26
2016-11-16T06:31:53.431Z,1.16
2016-11-16T06:32:53.404Z,1.14
2016-11-16T06:33:53.417Z,1.07
2016-11-16T06:34:53.387Z,1.21
2016-11-16T06:35:53.406Z,1.21
2016-11-16T06:36:53.365Z,1.24
2016-11-16T06:37:53.353Z,1.28
2016-11-16T06:38:53.309Z,1.38
2016-11-16T06:39:53.305Z,1.34
2016-11-16T06:40:53.306Z,1.42
2016-11-16T06:41:53.277Z,1.52
2016-11-16T06:42:53.255Z,1.5
2016-11-16T06:43:53.240Z,1.54
2016-11-16T06:44:53.232Z,1.56
2016-11-16T06:45:53.209Z,1.49
2016-11-16T06:46:53.209Z,1.47
2016-11-16T06:47:53.183Z,1.61
2016-11-16T06:48:53.183Z,1.67
2016-11-16T06:49:53.174Z,1.63
2016-11-16T06:50:53.148Z,1.6
2016-11-16T06:51:53.140Z,1.56
2016-11-16T06:52:53.128Z,1.53
2016-11-16T06:53:53.089Z,1.36
2016-11-16T06:54:53.087Z,1.36
2016-11-16T06:55:53.070Z,1.26
2016-11-16T06:56:53.071Z,1.18
2016-11-16T06:57:53.063Z,1.21
2016-11-16T06:58:53.035Z,1.13
2016-11-16T06:59:53.044Z,1.16
2016-11-16T07:00:53.011Z,1.14
2016-11-16T07:01:53.280Z,1.2
2016-11-16T07:02:52.992Z,1.18
2016-11-16T07:03:52.961Z,1.21
2016-11-16T07:04:52.953Z,1.16
2016-11-16T07:05:52.932Z,1.1
2016-11-16T07:06:52.927Z,1.16
2016-11-16T07:07:52.924Z,1.13
2016-11-16T07:08:52.885Z,1.16
2016-11-16T07:09:52.889Z,1.18
2016-11-16T07:10:52.860Z,1.11
2016-11-16T07:11:52.836Z,1.18
2016-11-16T07:12:52.823Z,1.13
2016-11-16T07:13:52.811Z,1.1
2016-11-16T07:14:52.794Z,1.16
2016-11-16T07:15:52.776Z,1.17
2016-11-16T07:16:52.780Z,1.13
2016-11-16T07:17:52.766Z,1.02
2016-11-16T07:18:52.724Z,1.13
2016-11-16T07:19:52.708Z,1.08
2016-11-16T07:20:52.712Z,1.06
2016-11-16T07:21:52.690Z,1.1
2016-11-16T07:22:52.661Z,1.08
2016-11-16T07:23:52.646Z,1.11
2016-11-16T07:24:52.644Z,1.07
2016-11-16T07:25:52.619Z,1.07
2016-11-16T07:26:52.628Z,1.08
2016-11-16T07:27:52.597Z,1.02
2016-11-16T07:28:52.581Z,1.11
2016-11-16T07:29:52.568Z,1.06
2016-11-16T07:30:52.554Z,1.07
2016-11-16T07:31:52.537Z,1.1
2016-11-16T07:32:52.521Z,1.02
2016-11-16T07:33:52.518Z,1.08
2016-11-16T07:34:52.489Z,1.1
2016-11-16T07:35:52.470Z,1.06
2016-11-16T07:36:52.455Z,1.06
2016-11-16T07:37:52.444Z,1.04
2016-11-16T07:38:52.438Z,1.06
2016-11-16T07:39:52.408Z,1.02
2016-11-16T07:40:52.379Z,1.07
2016-11-16T07:41:52.376Z,1.11
2016-11-16T07:42:52.347Z,1.04
2016-11-16T07:43:52.340Z,1.07
2016-11-16T07:44:52.345Z,1.06
2016-11-16T07:45:52.311Z,1.07
2016-11-16T07:46:52.292Z,1.11
2016-11-16T07:47:52.260Z,1.08
2016-11-16T07:48:52.256Z,1.06
2016-11-16T07:49:52.247Z,1.02
2016-11-16T07:50:52.238Z,1.04
2016-11-16T07:51:52.225Z,1.07
2016-11-16T07:52:52.179Z,1.02
2016-11-16T07:53:52.180Z,1.07
2016-11-16T07:54:52.183Z,1.02
2016-11-16T07:55:52.166Z,1.11
2016-11-16T07:56:52.118Z,1.07
2016-11-16T07:57:52.113Z,1.06
2016-11-16T07:58:52.093Z,1.06
2016-11-16T07:59:52.081Z,1.06
2016-11-16T08:00:52.066Z,1.11
2016-11-16T08:01:52.077Z,1.07
2016-11-16T08:02:52.040Z,1.1
2016-11-16T08:03:52.003Z,1.11
2016-11-16T08:04:52.021Z,1.08
2016-11-16T08:05:52.000Z,1.1
2016-11-16T08:06:51.977Z,1.06
2016-11-16T08:07:51.973Z,1.08
2016-11-16T08:08:51.945Z,1.11
2016-11-16T08:09:51.927Z,1.06
2016-11-16T08:10:51.910Z,1.16
2016-11-16T08:11:51.895Z,1.07
2016-11-16T08:12:51.881Z,1
2016-11-16T08:13:51.865Z,1.08
2016-11-16T08:14:51.856Z,1.04
2016-11-16T08:15:51.834Z,0.95
2016-11-16T08:16:51.809Z,1.1
2016-11-16T08:17:51.809Z,0.99
2016-11-16T08:18:51.783Z,1
2016-11-16T08:19:51.753Z,1.11
2016-11-16T08:20:51.756Z,1.11
2016-11-16T08:21:51.719Z,1.11
2016-11-16T08:22:51.771Z,1.14
2016-11-16T08:23:51.704Z,1.1
2016-11-16T08:24:51.685Z,1.07
2016-11-16T08:25:51.677Z,1.07
2016-11-16T08:26:51.664Z,1.04
2016-11-16T08:27:51.642Z,1.13
2016-11-16T08:28:51.640Z,1.18
2016-11-16T08:29:51.604Z,1.18
2016-11-16T08:30:51.601Z,1.17
2016-11-16T08:31:51.575Z,1.2
2016-11-16T08:32:51.576Z,1.2
2016-11-16T08:33:51.737Z,1.1
2016-11-16T08:34:51.521Z,1.16
2016-11-16T08:35:51.517Z,1.24
2016-11-16T08:36:51.497Z,1.21
2016-11-16T08:37:51.488Z,1.28
2016-11-16T08:38:51.463Z,1.44
2016-11-16T08:39:51.441Z,1.35
2016-11-16T08:40:51.447Z,1.5
2016-11-16T08:41:51.432Z,1.47
2016-11-16T08:42:51.388Z,1.44
2016-11-16T08:43:51.389Z,1.53
2016-11-16T08:44:51.421Z,1.52
2016-11-16T08:45:51.364Z,1.57
2016-11-16T08:46:51.331Z,1.63
2016-11-16T08:47:51.314Z,1.49
2016-11-16T08:48:51.299Z,1.39
2016-11-16T08:49:51.762Z,1.36
2016-11-16T08:50:51.324Z,1.38
2016-11-16T08:51:51.268Z,1.43
2016-11-16T08:52:51.220Z,1.49
2016-11-16T08:53:51.233Z,1.46
2016-11-16T08:54:51.231Z,1.46
2016-11-16T08:55:51.233Z,1.47
2016-11-16T08:56:51.179Z,1.32
2016-11-16T08:57:51.182Z,1.39
2016-11-16T08:58:51.166Z,1.39
2016-11-16T08:59:51.170Z,1.36
2016-11-16T09:00:51.164Z,1.42
2016-11-16T09:01:51.347Z,1.36
2016-11-16T09:02:51.108Z,1.36
2016-11-16T09:03:51.310Z,1.46
2016-11-16T09:04:51.084Z,1.35
2016-11-16T09:05:51.049Z,1.36
2016-11-16T09:06:51.067Z,1.39
2016-11-16T09:07:51.032Z,1.43
2016-11-16T09:08:51.010Z,1.36
2016-11-16T09:09:50.999Z,1.32
2016-11-16T09:10:50.984Z,1.39
2016-11-16T09:11:50.977Z,1.42
2016-11-16T09:12:50.957Z,1.42
2016-11-16T09:13:50.930Z,1.38
2016-11-16T09:14:50.922Z,1.44
2016-11-16T09:15:51.245Z,1.39
2016-11-16T09:16:50.886Z,1.42
2016-11-16T09:17:50.885Z,1.5
2016-11-16T09:18:50.868Z,1.43
2016-11-16T09:19:50.844Z,1.34
2016-11-16T09:20:50.855Z,1.47
2016-11-16T09:21:50.812Z,1.61
2016-11-16T09:22:50.788Z,1.49
2016-11-16T09:23:50.777Z,1.5
2016-11-16T09:24:50.762Z,1.52
2016-11-16T09:25:50.766Z,1.49
2016-11-16T09:26:50.734Z,1.43
2016-11-16T09:27:50.715Z,1.47
2016-11-16T09:28:50.717Z,1.35
2016-11-16T09:29:50.691Z,1.34
2016-11-16T09:30:50.657Z,1.46
2016-11-16T09:31:50.654Z,1.44
2016-11-16T09:32:50.644Z,1.49
2016-11-16T09:33:50.641Z,1.28
2016-11-16T09:34:50.606Z,1.32
2016-11-16T09:35:50.601Z,1.28
2016-11-16T09:36:50.581Z,1.42
2016-11-16T09:37:50.549Z,1.38
2016-11-16T09:38:50.558Z,1.28
2016-11-16T09:39:50.517Z,1.35
2016-11-16T09:40:50.520Z,1.32
2016-11-16T09:41:50.493Z,1.29
2016-11-16T09:42:50.482Z,1.32
2016-11-16T09:43:50.457Z,1.31
2016-11-16T09:44:50.449Z,1.26
2016-11-16T09:45:50.415Z,1.39
2016-11-16T09:46:50.404Z,1.32
2016-11-16T09:47:50.404Z,1.21
2016-11-16T09:48:50.385Z,1.24
2016-11-16T09:49:50.367Z,1.32
2016-11-16T09:50:50.366Z,1.49
2016-11-16T09:51:50.343Z,1.42
2016-11-16T09:52:50.329Z,1.28
2016-11-16T09:53:50.292Z,1.32
2016-11-16T09:54:50.289Z,1.25
2016-11-16T09:55:50.270Z,1.36
2016-11-16T09:56:50.249Z,1.43
2016-11-16T09:57:50.250Z,1.38
2016-11-16T09:58:50.247Z,1.32
2016-11-16T09:59:50.199Z,1.36
2016-11-16T10:00:50.194Z,1.34
2016-11-16T10:01:50.191Z,1.34
2016-11-16T10:02:50.179Z,1.35
2016-11-16T10:03:50.352Z,1.42
2016-11-16T10:04:50.133Z,1.46
2016-11-16T10:05:50.120Z,1.47
2016-11-16T10:06:50.110Z,1.5
2016-11-16T10:07:50.079Z,1.46
2016-11-16T10:08:50.061Z,1.43
2016-11-16T10:09:50.052Z,1.34
2016-11-16T10:10:50.050Z,1.43
2016-11-16T10:11:50.049Z,1.42
2016-11-16T10:12:50.033Z,1.28
2016-11-16T10:13:49.999Z,1.31
2016-11-16T10:14:49.988Z,1.39
2016-11-16T10:15:49.962Z,1.34
2016-11-16T10:16:49.935Z,1.57
2016-11-16T10:17:49.948Z,1.46
2016-11-16T10:18:49.917Z,1.49
2016-11-16T10:19:49.903Z,1.46
2016-11-16T10:20:49.880Z,1.39
2016-11-16T10:21:49.874Z,1.16
2016-11-16T10:22:49.896Z,1.14
2016-11-16T10:23:49.859Z,1.31
2016-11-16T10:24:49.832Z,1.36
2016-11-16T10:25:49.813Z,1.2
2016-11-16T10:26:49.811Z,1.18
2016-11-16T10:27:49.805Z,1.24
2016-11-16T10:28:49.783Z,1.49
2016-11-16T10:29:49.758Z,1.39
2016-11-16T10:30:50.049Z,1.42
2016-11-16T10:31:49.744Z,1.31
2016-11-16T10:32:49.690Z,1.25
2016-11-16T10:33:49.682Z,1.18
2016-11-16T10:34:49.678Z,1.29
2016-11-16T10:35:49.683Z,1.18
2016-11-16T10:36:49.667Z,1.1
2016-11-16T10:37:49.647Z,1.1
2016-11-16T10:38:49.639Z,1.21
2016-11-16T10:39:49.610Z,1.25
2016-11-16T10:40:49.579Z,1.29
2016-11-16T10:41:49.581Z,1.5
2016-11-16T10:42:49.544Z,1.47
2016-11-16T10:43:49.560Z,1.36
2016-11-16T10:44:49.509Z,1.1
2016-11-16T10:45:49.517Z,1.2
2016-11-16T10:46:49.504Z,1.39
2016-11-16T10:47:49.466Z,1.61
2016-11-16T10:48:49.458Z,1.47
2016-11-16T10:49:49.449Z,1.6
2016-11-16T10:50:49.438Z,1.47
2016-11-16T10:51:49.423Z,1.49
2016-11-16T10:52:49.399Z,1.24
2016-11-16T10:53:49.400Z,1.46
2016-11-16T10:54:49.375Z,1.34
2016-11-16T10:55:49.383Z,1.38
2016-11-16T10:56:49.338Z,1.38
2016-11-16T10:57:49.342Z,1.39
2016-11-16T10:58:49.327Z,1.42
2016-11-16T10:59:49.305Z,1.24
2016-11-16T11:00:49.308Z,1.35
2016-11-16T11:01:49.270Z,1.38
2016-11-16T11:02:49.263Z,1.18
2016-11-16T11:03:49.253Z,1.08
2016-11-16T11:04:49.247Z,1.13
2016-11-16T11:05:49.210Z,1.26
2016-11-16T11:06:49.212Z,1.35
2016-11-16T11:07:49.189Z,1.24
2016-11-16T11:08:49.182Z,1.26
2016-11-16T11:09:49.153Z,1.36
2016-11-16T11:10:49.137Z,1.25
2016-11-16T11:11:49.135Z,1.28
2016-11-16T11:12:49.118Z,1.21
2016-11-16T11:13:49.095Z,1.26
2016-11-16T11:14:49.089Z,1.29
2016-11-16T11:15:49.077Z,1.28
2016-11-16T11:16:49.052Z,1.17
2016-11-16T11:17:49.036Z,1.13
2016-11-16T11:18:49.017Z,1.21
2016-11-16T11:19:49.022Z,1.1
2016-11-16T11:20:48.971Z,1.13
2016-11-16T11:21:48.976Z,1.14
2016-11-16T11:22:48.976Z,1.18
2016-11-16T11:23:48.992Z,1.18
2016-11-16T11:24:48.913Z,1.18
2016-11-16T11:25:48.918Z,1.24
2016-11-16T11:26:48.912Z,1.2
2016-11-16T11:27:48.888Z,1.24
2016-11-16T11:28:48.850Z,1.17
2016-11-16T11:29:48.849Z,1.29
2016-11-16T11:30:48.826Z,1.26
2016-11-16T11:31:48.819Z,1.29
2016-11-16T11:32:49.162Z,1.31
2016-11-16T11:33:48.802Z,1.36
2016-11-16T11:34:48.774Z,1.26
2016-11-16T11:35:48.751Z,1.26
2016-11-16T11:36:48.761Z,1.31
2016-11-16T11:37:48.747Z,1.32
2016-11-16T11:38:48.774Z,1.47
2016-11-16T11:39:48.741Z,1.38
2016-11-16T11:40:48.674Z,1.46
2016-11-16T11:41:48.695Z,1.38
2016-11-16T11:42:48.663Z,1.44
2016-11-16T11:43:48.635Z,1.57
2016-11-16T11:44:48.648Z,1.7
2016-11-16T11:45:48.615Z,1.47
2016-11-16T11:46:48.615Z,1.42
2016-11-16T11:47:48.572Z,1.47
2016-11-16T11:48:48.577Z,1.18
2016-11-16T11:49:48.563Z,1.32
2016-11-16T11:50:48.541Z,1.36
2016-11-16T11:51:48.549Z,1.42
2016-11-16T11:52:48.520Z,1.35
2016-11-16T11:53:48.494Z,1.29
2016-11-16T11:54:48.484Z,1.31
2016-11-16T11:55:48.470Z,1.31
2016-11-16T11:56:48.460Z,1.25
2016-11-16T11:57:48.445Z,1.2
2016-11-16T11:58:48.425Z,1.18
2016-11-16T11:59:48.412Z,1.32
2016-11-16T12:00:48.396Z,1.26
2016-11-16T12:01:48.422Z,1.32
2016-11-16T12:02:48.365Z,1.42
2016-11-16T12:03:48.377Z,1.29
2016-11-16T12:04:48.347Z,1.26
2016-11-16T12:05:48.338Z,1.26
2016-11-16T12:06:48.295Z,1.14
2016-11-16T12:07:48.312Z,1.25
2016-11-16T12:08:48.284Z,1.28
2016-11-16T12:09:48.272Z,1.28
2016-11-16T12:10:48.239Z,1.43
2016-11-16T12:11:48.240Z,1.47
2016-11-16T12:12:48.209Z,1.35
2016-11-16T12:13:48.219Z,1.2
2016-11-16T12:14:48.197Z,1.29
2016-11-16T12:15:48.157Z,1.08
2016-11-16T12:16:48.165Z,1.38
2016-11-16T12:17:48.164Z,1.28
2016-11-16T12:18:48.157Z,1.25
2016-11-16T12:19:48.120Z,1.34
2016-11-16T12:20:48.105Z,1.2
2016-11-16T12:21:48.111Z,1.26
2016-11-16T12:22:48.052Z,1.34
2016-11-16T12:23:48.073Z,1.36
2016-11-16T12:24:48.037Z,1.31
2016-11-16T12:25:48.029Z,1.26
2016-11-16T12:26:48.340Z,1.24
2016-11-16T12:27:47.992Z,1.24
2016-11-16T12:28:47.985Z,1.21
2016-11-16T12:29:47.962Z,1.26
2016-11-16T12:30:47.937Z,1.2
2016-11-16T12:31:47.939Z,1.25
2016-11-16T12:32:47.927Z,1.17
2016-11-16T12:33:47.905Z,1.11
2016-11-16T12:34:48.651Z,1.04
2016-11-16T12:35:47.877Z,1.17
2016-11-16T12:36:47.875Z,1.07
2016-11-16T12:37:47.840Z,1.11
2016-11-16T12:38:47.821Z,1.14
2016-11-16T12:39:47.809Z,1.2
2016-11-16T12:40:47.816Z,1.25
2016-11-16T12:41:47.785Z,1.26
2016-11-16T12:42:47.784Z,1.26
2016-11-16T12:43:47.740Z,1.24
2016-11-16T12:44:47.735Z,1.28
2016-11-16T12:45:47.716Z,1.47
2016-11-16T12:46:47.697Z,1.29
2016-11-16T12:47:47.991Z,1.31
2016-11-16T12:48:47.680Z,1.38
2016-11-16T12:49:47.658Z,1.28
2016-11-16T12:50:47.651Z,1.13
2016-11-16T12:51:47.651Z,1.2
2016-11-16T12:52:47.620Z,1.26
2016-11-16T12:53:47.588Z,1.1
2016-11-16T12:54:47.582Z,1.11
2016-11-16T12:55:47.576Z,1.14
2016-11-16T12:56:47.561Z,1.1
2016-11-16T12:57:47.535Z,1.14
2016-11-16T12:58:47.518Z,1.16
2016-11-16T12:59:47.501Z,1.17
2016-11-16T13:00:47.498Z,1.18
2016-11-16T13:01:47.483Z,1.24
2016-11-16T13:02:47.454Z,1.28
2016-11-16T13:03:47.443Z,1.17
2016-11-16T13:04:47.435Z,1.11
2016-11-16T13:05:47.434Z,1.16
2016-11-16T13:06:47.399Z,1.1
2016-11-16T13:07:47.370Z,1.08
2016-11-16T13:08:47.374Z,1.21
2016-11-16T13:09:47.342Z,1.16
2016-11-16T13:10:47.356Z,1.13
2016-11-16T13:11:47.326Z,1.13
2016-11-16T13:12:47.321Z,1.16
2016-11-16T13:13:47.309Z,1.26
2016-11-16T13:14:47.300Z,1.28
2016-11-16T13:15:47.281Z,1.28
2016-11-16T13:16:47.246Z,1.28
2016-11-16T13:17:47.243Z,1.28
2016-11-16T13:18:47.219Z,1.25
2016-11-16T13:19:47.205Z,1.17
2016-11-16T13:20:47.195Z,1.21
2016-11-16T13:21:47.170Z,1.25